sensor_id;sensor_type;location;lat;lon;timestamp;P1;durP1;ratioP1;P2;durP2;ratioP2
79779;SDS011;69258;52.050;10.334;2023-05-07T00:06:53;2.23;;;2.03;;
79779;SDS011;69258;52.050;10.334;2023-05-07T00:21:55;2.37;;;2.20;;
79779;SDS011;69258;52.050;10.334;2023-05-07T00:36:57;2.50;;;2.30;;
79779;SDS011;69258;52.050;10.334;2023-05-07T00:51:58;2.70;;;2.50;;
79779;SDS011;69258;52.050;10.334;2023-05-07T01:07:03;2.30;;;2.17;;
79779;SDS011;69258;52.050;10.334;2023-05-07T01:22:07;2.27;;;2.13;;
79779;SDS011;69258;52.050;10.334;2023-05-07T01:37:10;2.30;;;2.10;;
79779;SDS011;69258;52.050;10.334;2023-05-07T01:52:12;2.33;;;2.13;;
79779;SDS011;69258;52.050;10.334;2023-05-07T02:07:14;2.30;;;2.10;;
79779;SDS011;69258;52.050;10.334;2023-05-07T02:22:16;2.03;;;1.90;;
79779;SDS011;69258;52.050;10.334;2023-05-07T02:37:18;2.30;;;2.10;;
79779;SDS011;69258;52.050;10.334;2023-05-07T02:52:20;1.90;;;1.80;;
79779;SDS011;69258;52.050;10.334;2023-05-07T03:07:22;2.17;;;2.00;;
79779;SDS011;69258;52.050;10.334;2023-05-07T03:22:23;2.27;;;2.07;;
79779;SDS011;69258;52.050;10.334;2023-05-07T03:37:25;2.30;;;2.10;;
79779;SDS011;69258;52.050;10.334;2023-05-07T03:52:27;2.00;;;1.90;;
79779;SDS011;69258;52.050;10.334;2023-05-07T04:07:28;1.90;;;1.80;;
79779;SDS011;69258;52.050;10.334;2023-05-07T04:22:30;2.13;;;2.00;;
79779;SDS011;69258;52.050;10.334;2023-05-07T04:37:32;2.00;;;1.80;;
79779;SDS011;69258;52.050;10.334;2023-05-07T04:52:34;1.83;;;1.73;;
79779;SDS011;69258;52.050;10.334;2023-05-07T05:07:36;2.00;;;1.90;;
79779;SDS011;69258;52.050;10.334;2023-05-07T05:22:38;1.93;;;1.80;;
79779;SDS011;69258;52.050;10.334;2023-05-07T05:37:40;1.77;;;1.67;;
79779;SDS011;69258;52.050;10.334;2023-05-07T05:52:42;1.83;;;1.73;;
79779;SDS011;69258;52.050;10.334;2023-05-07T06:07:43;1.70;;;1.60;;
79779;SDS011;69258;52.050;10.334;2023-05-07T06:22:45;1.60;;;1.50;;
79779;SDS011;69258;52.050;10.334;2023-05-07T06:37:47;1.87;;;1.63;;
79779;SDS011;69258;52.050;10.334;2023-05-07T06:52:49;1.60;;;1.50;;
79779;SDS011;69258;52.050;10.334;2023-05-07T07:07:50;1.57;;;1.47;;
79779;SDS011;69258;52.050;10.334;2023-05-07T07:22:52;1.50;;;1.40;;
79779;SDS011;69258;52.050;10.334;2023-05-07T07:37:54;1.60;;;1.50;;
79779;SDS011;69258;52.050;10.334;2023-05-07T07:52:56;1.60;;;1.50;;
79779;SDS011;69258;52.050;10.334;2023-05-07T08:07:57;1.80;;;1.70;;
79779;SDS011;69258;52.050;10.334;2023-05-07T08:22:59;1.63;;;1.53;;
79779;SDS011;69258;52.050;10.334;2023-05-07T08:38:01;1.80;;;1.70;;
79779;SDS011;69258;52.050;10.334;2023-05-07T08:53:03;1.80;;;1.70;;
79779;SDS011;69258;52.050;10.334;2023-05-07T09:08:06;1.90;;;1.80;;
79779;SDS011;69258;52.050;10.334;2023-05-07T09:23:09;1.80;;;1.70;;
79779;SDS011;69258;52.050;10.334;2023-05-07T09:38:10;2.20;;;2.10;;
79779;SDS011;69258;52.050;10.334;2023-05-07T09:53:14;1.90;;;1.80;;
79779;SDS011;69258;52.050;10.334;2023-05-07T10:08:15;2.03;;;1.93;;
79779;SDS011;69258;52.050;10.334;2023-05-07T10:23:19;1.80;;;1.70;;
79779;SDS011;69258;52.050;10.334;2023-05-07T10:38:25;2.10;;;1.90;;
79779;SDS011;69258;52.050;10.334;2023-05-07T10:53:28;1.70;;;1.60;;
79779;SDS011;69258;52.050;10.334;2023-05-07T11:38:56;1.70;;;1.60;;
79779;SDS011;69258;52.050;10.334;2023-05-07T11:53:58;1.80;;;1.70;;
79779;SDS011;69258;52.050;10.334;2023-05-07T12:09:00;2.00;;;1.90;;
79779;SDS011;69258;52.050;10.334;2023-05-07T12:24:02;1.90;;;1.80;;
79779;SDS011;69258;52.050;10.334;2023-05-07T12:39:04;2.23;;;2.07;;
79779;SDS011;69258;52.050;10.334;2023-05-07T12:54:07;2.03;;;1.93;;
79779;SDS011;69258;52.050;10.334;2023-05-07T13:09:08;1.80;;;1.70;;
79779;SDS011;69258;52.050;10.334;2023-05-07T13:24:10;2.10;;;1.97;;
79779;SDS011;69258;52.050;10.334;2023-05-07T13:39:12;1.90;;;1.80;;
79779;SDS011;69258;52.050;10.334;2023-05-07T13:54:14;2.10;;;2.00;;
79779;SDS011;69258;52.050;10.334;2023-05-07T14:09:15;2.27;;;2.07;;
79779;SDS011;69258;52.050;10.334;2023-05-07T14:24:17;2.40;;;2.20;;
79779;SDS011;69258;52.050;10.334;2023-05-07T14:39:38;2.30;;;2.10;;
79779;SDS011;69258;52.050;10.334;2023-05-07T14:54:40;2.10;;;2.00;;
79779;SDS011;69258;52.050;10.334;2023-05-07T15:09:42;2.60;;;2.40;;
79779;SDS011;69258;52.050;10.334;2023-05-07T15:24:44;2.80;;;2.60;;
79779;SDS011;69258;52.050;10.334;2023-05-07T15:39:46;2.67;;;2.47;;
79779;SDS011;69258;52.050;10.334;2023-05-07T15:54:48;2.63;;;2.43;;
79779;SDS011;69258;52.050;10.334;2023-05-07T16:09:50;3.00;;;2.80;;
79779;SDS011;69258;52.050;10.334;2023-05-07T16:24:51;2.50;;;2.30;;
79779;SDS011;69258;52.050;10.334;2023-05-07T16:39:53;3.20;;;3.00;;
79779;SDS011;69258;52.050;10.334;2023-05-07T16:54:55;2.90;;;2.70;;
79779;SDS011;69258;52.050;10.334;2023-05-07T17:09:57;2.80;;;2.60;;
79779;SDS011;69258;52.050;10.334;2023-05-07T17:24:59;2.70;;;2.50;;
79779;SDS011;69258;52.050;10.334;2023-05-07T17:40:00;2.87;;;2.67;;
79779;SDS011;69258;52.050;10.334;2023-05-07T17:55:02;3.20;;;3.00;;
79779;SDS011;69258;52.050;10.334;2023-05-07T18:10:04;2.90;;;2.70;;
79779;SDS011;69258;52.050;10.334;2023-05-07T18:25:06;2.80;;;2.60;;
79779;SDS011;69258;52.050;10.334;2023-05-07T18:40:09;2.77;;;2.57;;
79779;SDS011;69258;52.050;10.334;2023-05-07T18:55:11;2.73;;;2.53;;
79779;SDS011;69258;52.050;10.334;2023-05-07T19:10:14;2.73;;;2.53;;
79779;SDS011;69258;52.050;10.334;2023-05-07T19:25:16;2.87;;;2.67;;
79779;SDS011;69258;52.050;10.334;2023-05-07T19:40:18;2.67;;;2.47;;
79779;SDS011;69258;52.050;10.334;2023-05-07T19:55:20;2.60;;;2.40;;
79779;SDS011;69258;52.050;10.334;2023-05-07T20:10:22;2.63;;;2.43;;
79779;SDS011;69258;52.050;10.334;2023-05-07T20:25:24;2.63;;;2.43;;
79779;SDS011;69258;52.050;10.334;2023-05-07T20:40:26;2.70;;;2.50;;
79779;SDS011;69258;52.050;10.334;2023-05-07T20:55:28;3.03;;;2.63;;
79779;SDS011;69258;52.050;10.334;2023-05-07T21:10:29;2.30;;;2.20;;
79779;SDS011;69258;52.050;10.334;2023-05-07T21:25:31;2.70;;;2.50;;
79779;SDS011;69258;52.050;10.334;2023-05-07T21:40:33;2.37;;;2.17;;
79779;SDS011;69258;52.050;10.334;2023-05-07T21:55:35;2.30;;;2.20;;
79779;SDS011;69258;52.050;10.334;2023-05-07T22:10:36;2.30;;;2.20;;
79779;SDS011;69258;52.050;10.334;2023-05-07T22:25:38;2.67;;;2.47;;
79779;SDS011;69258;52.050;10.334;2023-05-07T22:40:40;2.37;;;2.27;;
79779;SDS011;69258;52.050;10.334;2023-05-07T22:55:42;3.00;;;2.80;;
79779;SDS011;69258;52.050;10.334;2023-05-07T23:10:44;2.53;;;2.33;;
79779;SDS011;69258;52.050;10.334;2023-05-07T23:25:45;2.20;;;2.10;;
79779;SDS011;69258;52.050;10.334;2023-05-07T23:40:47;2.60;;;2.40;;
79779;SDS011;69258;52.050;10.334;2023-05-07T23:55:49;2.60;;;2.40;;
